Terminal Aerodrome Forecast
Issued by NWS

Home | Current Version | Previous Version | Graphics & Text | Print | Product List | Glossary On
Versions: 1 2 3 4 5 6 7 8 9 10 11 12 13 14 15 16 17 18 19 20 21 22 23 24 25 26 27 28 29 30 31 32
461
FTUS43 KGRB 041545 AAB
TAFRHI
TAF AMD
KRHI 041545Z 0416/0512 14005KT 1SM -SN SCT008 OVC027
     FM041700 16006KT 1SM -SN OVC008
     FM042300 21006KT 3SM -SN OVC007
     FM050400 25006KT P6SM OVC010
     FM050900 25005KT P6SM BKN007=

USA.gov is the U.S. government's official web portal to all federal, state and local government web resources and services.